createdAt,value
2019-01-11T00:02:27.810Z,1.40
2019-01-11T00:08:32.365Z,1.33
2019-01-11T00:14:36.915Z,1.33
2019-01-11T00:20:41.484Z,1.27
2019-01-11T00:26:46.044Z,1.15
2019-01-11T00:32:50.604Z,0.92
2019-01-11T00:38:55.245Z,0.85
2019-01-11T00:44:59.803Z,0.88
2019-01-11T00:51:04.536Z,0.81
2019-01-11T00:57:09.082Z,0.96
2019-01-11T01:03:13.705Z,1.13
2019-01-11T01:09:18.343Z,1.08
2019-01-11T01:15:22.977Z,1.18
2019-01-11T01:21:27.535Z,1.12
2019-01-11T01:27:32.106Z,1.03
2019-01-11T01:33:36.638Z,1.22
2019-01-11T01:39:41.263Z,1.30
2019-01-11T01:45:45.956Z,1.35
2019-01-11T01:51:51.603Z,1.41
2019-01-11T01:57:56.157Z,1.45
2019-01-11T02:04:00.778Z,1.47
2019-01-11T02:10:09.635Z,1.46
2019-01-11T02:16:14.201Z,1.53
2019-01-11T02:22:19.540Z,1.51
2019-01-11T02:28:24.173Z,1.59
2019-01-11T02:34:28.727Z,1.58
2019-01-11T02:40:33.348Z,1.74
2019-01-11T02:46:37.976Z,1.52
2019-01-11T02:52:42.851Z,1.51
2019-01-11T02:58:47.402Z,1.47
2019-01-11T03:04:51.954Z,1.52
2019-01-11T03:10:56.507Z,1.60
2019-01-11T03:17:01.052Z,1.69
2019-01-11T03:23:05.681Z,1.50
2019-01-11T03:29:10.231Z,1.60
2019-01-11T03:35:15.591Z,1.64
2019-01-11T03:41:20.145Z,1.66
2019-01-11T03:47:24.764Z,1.58
2019-01-11T03:53:29.305Z,1.71
2019-01-11T03:59:33.992Z,1.68
2019-01-11T04:05:38.643Z,1.67
2019-01-11T04:11:43.225Z,1.75
2019-01-11T04:17:49.829Z,1.82
2019-01-11T04:23:54.390Z,1.64
2019-01-11T04:29:58.947Z,1.73
2019-01-11T04:36:03.565Z,1.75
2019-01-11T04:42:08.117Z,1.70
2019-01-11T04:48:32.235Z,1.67
2019-01-11T04:54:36.820Z,1.66
2019-01-11T05:00:41.359Z,1.62
2019-01-11T05:06:45.889Z,1.64
2019-01-11T05:12:50.545Z,1.64
2019-01-11T05:18:55.107Z,1.66
2019-01-11T05:24:59.651Z,1.63
2019-01-11T05:31:04.534Z,1.76
2019-01-11T05:37:09.074Z,1.65
2019-01-11T05:43:13.618Z,1.78
2019-01-11T05:49:18.154Z,1.73
2019-01-11T05:55:36.466Z,1.76
2019-01-11T06:01:41.073Z,1.76
2019-01-11T06:07:45.983Z,1.66
2019-01-11T06:13:50.517Z,1.84
2019-01-11T06:19:55.054Z,1.80
2019-01-11T06:25:59.593Z,1.71
2019-01-11T06:32:04.201Z,1.83
2019-01-11T06:38:08.740Z,1.67
2019-01-11T06:44:13.288Z,1.71
2019-01-11T06:50:18.265Z,1.73
2019-01-11T06:56:22.810Z,1.82
2019-01-11T07:02:27.377Z,1.81
2019-01-11T07:08:31.922Z,1.77
2019-01-11T07:14:36.464Z,1.80
2019-01-11T07:20:42.995Z,1.94
2019-01-11T07:26:47.277Z,1.93
2019-01-11T07:32:51.823Z,1.90
2019-01-11T07:38:56.432Z,1.87
2019-01-11T07:45:00.972Z,1.76
2019-01-11T07:51:05.595Z,1.72
2019-01-11T07:57:10.207Z,1.81
2019-01-11T08:03:14.753Z,1.81
2019-01-11T08:09:19.389Z,1.87
2019-01-11T08:15:23.955Z,1.76
2019-01-11T08:21:28.562Z,1.74
2019-01-11T08:27:33.097Z,1.94
2019-01-11T08:33:37.793Z,2.12
2019-01-11T08:39:42.343Z,2.12
2019-01-11T08:45:46.971Z,2.16
2019-01-11T08:51:51.603Z,2.20
2019-01-11T08:57:56.303Z,2.14
2019-01-11T09:04:00.830Z,2.26
2019-01-11T09:10:22.237Z,2.40
2019-01-11T09:16:21.792Z,2.48
2019-01-11T09:22:26.363Z,2.48
2019-01-11T09:28:30.888Z,2.63
2019-01-11T09:34:35.442Z,2.76
2019-01-11T09:40:39.983Z,2.67
2019-01-11T09:46:44.517Z,2.67
2019-01-11T09:52:49.075Z,2.68
2019-01-11T09:58:55.415Z,2.62
2019-01-11T10:04:59.969Z,2.57
2019-01-11T10:11:04.792Z,2.67
2019-01-11T10:17:09.347Z,2.63
2019-01-11T10:23:13.964Z,2.65
2019-01-11T10:29:18.528Z,2.74
2019-01-11T10:35:23.298Z,2.80
2019-01-11T10:41:27.927Z,2.70
2019-01-11T10:47:32.545Z,2.50
2019-01-11T10:53:37.129Z,2.59
2019-01-11T10:59:41.803Z,2.53
2019-01-11T11:05:46.339Z,2.55
2019-01-11T11:11:50.891Z,2.55
2019-01-11T11:17:55.537Z,2.72
2019-01-11T11:24:00.092Z,2.89
2019-01-11T11:30:07.076Z,2.91
2019-01-11T11:36:11.610Z,2.74
2019-01-11T11:42:16.968Z,2.67
2019-01-11T11:48:21.563Z,2.80
2019-01-11T11:54:26.099Z,2.78
2019-01-11T12:00:30.712Z,2.88
2019-01-11T12:06:35.253Z,2.88
2019-01-11T12:12:39.789Z,2.98
2019-01-11T12:18:44.353Z,2.82
2019-01-11T12:24:48.893Z,2.90
2019-01-11T12:30:53.428Z,2.94
2019-01-11T12:36:57.957Z,2.97
2019-01-11T12:43:02.515Z,3.03
2019-01-11T12:49:07.139Z,3.18
2019-01-11T12:55:11.739Z,3.30
2019-01-11T13:01:16.272Z,3.30
2019-01-11T13:07:20.800Z,3.36
2019-01-11T13:13:25.357Z,3.43
2019-01-11T13:19:29.963Z,3.49
2019-01-11T13:25:34.498Z,3.56
2019-01-11T13:31:39.062Z,3.60
2019-01-11T13:37:43.846Z,3.59
2019-01-11T13:43:48.447Z,3.51
2019-01-11T13:49:52.990Z,3.70
2019-01-11T13:55:57.561Z,3.51
2019-01-11T14:02:02.238Z,3.53
2019-01-11T14:08:06.849Z,3.44
2019-01-11T14:14:11.448Z,3.34
2019-01-11T14:20:16.066Z,3.40
2019-01-11T14:26:20.727Z,3.48
2019-01-11T14:32:27.968Z,3.63
2019-01-11T14:38:32.518Z,3.62
2019-01-11T14:44:37.965Z,3.81
2019-01-11T14:50:42.580Z,3.75
2019-01-11T14:56:47.119Z,3.73
2019-01-11T15:02:51.856Z,3.74
2019-01-11T15:08:56.401Z,3.74
2019-01-11T15:15:00.947Z,3.78
2019-01-11T15:21:05.553Z,3.85
2019-01-11T15:27:10.176Z,3.87
2019-01-11T15:33:14.709Z,3.94
2019-01-11T15:39:19.285Z,4.09
2019-01-11T15:45:23.899Z,4.21
2019-01-11T15:51:28.440Z,4.33
2019-01-11T15:57:37.546Z,4.29
2019-01-11T16:03:42.655Z,4.34
2019-01-11T16:09:56.431Z,4.41
2019-01-11T16:16:03.770Z,4.56
2019-01-11T16:22:08.339Z,4.64
2019-01-11T16:28:12.966Z,4.73
2019-01-11T16:34:17.520Z,4.79
2019-01-11T16:40:22.068Z,4.78
2019-01-11T16:46:26.614Z,4.77
2019-01-11T16:52:31.174Z,4.78
2019-01-11T16:58:35.879Z,4.87
2019-01-11T17:04:40.439Z,4.98
2019-01-11T17:10:44.985Z,5.01
2019-01-11T17:16:49.543Z,5.08
2019-01-11T17:22:54.082Z,5.15
2019-01-11T17:28:58.633Z,5.21
2019-01-11T17:35:04.943Z,5.30
2019-01-11T17:41:09.734Z,5.37
2019-01-11T17:47:14.289Z,5.38
2019-01-11T17:53:18.830Z,5.49
2019-01-11T17:59:23.396Z,5.49
2019-01-11T18:05:27.941Z,5.52
2019-01-11T18:11:32.506Z,5.65
2019-01-11T18:17:37.062Z,5.54
2019-01-11T18:23:41.629Z,5.51
2019-01-11T18:29:46.174Z,5.67
2019-01-11T18:35:50.695Z,5.82
2019-01-11T18:41:55.255Z,5.85
2019-01-11T18:47:59.793Z,5.87
2019-01-11T18:54:04.512Z,5.86
2019-01-11T19:00:18.642Z,5.80
2019-01-11T19:06:23.198Z,5.85
2019-01-11T19:12:27.767Z,5.88
2019-01-11T19:18:32.357Z,5.91
2019-01-11T19:24:36.906Z,5.88
2019-01-11T19:30:41.446Z,5.92
2019-01-11T19:36:46.003Z,5.92
2019-01-11T19:42:50.528Z,5.89
2019-01-11T19:48:55.073Z,5.94
2019-01-11T19:54:59.690Z,6.02
2019-01-11T20:01:04.621Z,5.96
2019-01-11T20:07:09.143Z,5.92
2019-01-11T20:13:13.818Z,5.76
2019-01-11T20:19:18.351Z,6.01
2019-01-11T20:25:24.797Z,5.95
2019-01-11T20:31:29.428Z,5.98
2019-01-11T20:37:34.906Z,6.04
2019-01-11T20:43:39.625Z,6.02
2019-01-11T20:49:44.205Z,6.00
2019-01-11T20:55:48.812Z,5.95
2019-01-11T21:01:53.350Z,5.86
2019-01-11T21:07:58.028Z,5.92
2019-01-11T21:14:02.673Z,5.90
2019-01-11T21:20:14.408Z,5.87
2019-01-11T21:26:18.985Z,6.01
2019-01-11T21:32:23.505Z,5.89
2019-01-11T21:38:28.046Z,5.94
2019-01-11T21:44:32.588Z,5.90
2019-01-11T21:50:37.130Z,5.85
2019-01-11T21:56:41.673Z,5.95
2019-01-11T22:02:46.299Z,5.94
2019-01-11T22:08:50.842Z,5.90
2019-01-11T22:14:55.385Z,5.93
2019-01-11T22:20:59.905Z,5.97
2019-01-11T22:27:04.583Z,5.95
2019-01-11T22:33:09.121Z,5.89
2019-01-11T22:39:13.653Z,5.97
2019-01-11T22:45:18.216Z,5.90
2019-01-11T22:51:22.760Z,5.97
2019-01-11T22:57:27.302Z,6.05
2019-01-11T23:03:38.917Z,6.14
2019-01-11T23:09:44.158Z,6.10
2019-01-11T23:15:48.932Z,6.12
2019-01-11T23:21:53.462Z,6.00
2019-01-11T23:27:58.004Z,6.03
2019-01-11T23:34:02.543Z,5.96
2019-01-11T23:40:11.444Z,6.02
2019-01-11T23:46:16.048Z,6.00
2019-01-11T23:52:20.650Z,6.06
2019-01-11T23:58:25.217Z,6.01
